Mulberry River (Arkansas), Mulberry (07252000)

StateArkansasCurrentPotential (1080 cfs)
RiverMulberry RiverFlood - The river is flooding. Obstacles can be treacherous or deadly. The river should be avoided at this stage for casual trips and definitely for the inexperienced. Trips should be attempted only with protective gear and equipment.Flood(none)
Updated2019-10-13 18:30 (1 hour ago)High - The river is high and potentially dangerous, especially for the young and / or inexperienced. Normal stream obstacles are sometimes difficult to navigate. Extended distances can be attempted, but canoe travel may not be advisable.High(none)
Discharge1080 cfs (median: 15 cfs)Good - Conditions are ideal for a canoe or kayak. Boats typically will drag on fewer than one-quarter of riffles, if at all, and portages are unnecessary or rare. Normal float lengths can be attempted without a problem.Good(none)
Height3.05 feetLow - River is low but can still be floated. Some riffles are okay but most come with significant dragging and might need a portage. Float lengths should be reduced to accommodate low flow, dragging, and portages.Low(none)
TrendFalling (falling over 24 hours)Poor - River is too low to float comfortably. Most or all riffles will drag or must be portaged and some obstacles (such as slick shelf rock) cause undue problems. Avoid the river at this stage for casual paddling trips.Poor(none)
USGSExternal icon USGS Site for Mulberry (07252000)LocationExternal icon Google Maps

Trending Data

Plot Image
ObservationHeightDischargeMaximum
Discharge
Minimum
Discharge
Mean
Discharge
P05P10P20P25P50
(Median)
P75P80P90P95
2019-10-13 18:30 3.05 1080 3430 (2015) 0 (1954) 176 0 0 2 3 15 76 131 557 846
2019-10-13 17:30 3.07 1100 3430 (2015) 0 (1954) 176 0 0 2 3 15 76 131 557 846
2019-10-13 16:30 3.08 1110 3430 (2015) 0 (1954) 176 0 0 2 3 15 76 131 557 846
2019-10-13 15:30 3.10 1120 3430 (2015) 0 (1954) 176 0 0 2 3 15 76 131 557 846
2019-10-13 14:30 3.12 1140 3430 (2015) 0 (1954) 176 0 0 2 3 15 76 131 557 846
2019-10-13 13:30 3.14 1150 3430 (2015) 0 (1954) 176 0 0 2 3 15 76 131 557 846
2019-10-13 12:30 3.16 1170 3430 (2015) 0 (1954) 176 0 0 2 3 15 76 131 557 846
2019-10-13 11:30 3.18 1180 3430 (2015) 0 (1954) 176 0 0 2 3 15 76 131 557 846
2019-10-13 10:30 3.20 1200 3430 (2015) 0 (1954) 176 0 0 2 3 15 76 131 557 846
2019-10-13 09:30 3.21 1210 3430 (2015) 0 (1954) 176 0 0 2 3 15 76 131 557 846
2019-10-13 08:30 3.24 1230 3430 (2015) 0 (1954) 176 0 0 2 3 15 76 131 557 846
2019-10-13 07:30 3.26 1250 3430 (2015) 0 (1954) 176 0 0 2 3 15 76 131 557 846
2019-10-13 06:30 3.29 1270 3430 (2015) 0 (1954) 176 0 0 2 3 15 76 131 557 846
2019-10-13 05:30 3.31 1290 3430 (2015) 0 (1954) 176 0 0 2 3 15 76 131 557 846
2019-10-13 04:30 3.33 1300 3430 (2015) 0 (1954) 176 0 0 2 3 15 76 131 557 846
2019-10-13 03:30 3.36 1330 3430 (2015) 0 (1954) 176 0 0 2 3 15 76 131 557 846
2019-10-13 02:30 3.39 1350 3430 (2015) 0 (1954) 176 0 0 2 3 15 76 131 557 846
2019-10-13 01:30 3.42 1380 3430 (2015) 0 (1954) 176 0 0 2 3 15 76 131 557 846
2019-10-13 00:30 3.45 1410 3430 (2015) 0 (1954) 176 0 0 2 3 15 76 131 557 846
2019-10-12 23:30 3.48 1430 1340 (2015) 0 (1954) 118 0 0 2 4 15 81 96 572 662
2019-10-12 22:30 3.51 1460 1340 (2015) 0 (1954) 118 0 0 2 4 15 81 96 572 662
2019-10-12 21:30 3.55 1490 1340 (2015) 0 (1954) 118 0 0 2 4 15 81 96 572 662
2019-10-12 20:30 3.58 1520 1340 (2015) 0 (1954) 118 0 0 2 4 15 81 96 572 662
2019-10-12 19:30 3.62 1550 1340 (2015) 0 (1954) 118 0 0 2 4 15 81 96 572 662
2019-10-12 18:30 3.65 1580 1340 (2015) 0 (1954) 118 0 0 2 4 15 81 96 572 662
2019-10-12 17:30 3.69 1610 1340 (2015) 0 (1954) 118 0 0 2 4 15 81 96 572 662
2019-10-12 16:30 3.73 1650 1340 (2015) 0 (1954) 118 0 0 2 4 15 81 96 572 662
2019-10-12 15:30 3.78 1690 1340 (2015) 0 (1954) 118 0 0 2 4 15 81 96 572 662
2019-10-12 14:30 3.82 1730 1340 (2015) 0 (1954) 118 0 0 2 4 15 81 96 572 662
2019-10-12 13:30 3.87 1780 1340 (2015) 0 (1954) 118 0 0 2 4 15 81 96 572 662
2019-10-12 12:30 3.91 1810 1340 (2015) 0 (1954) 118 0 0 2 4 15 81 96 572 662
2019-10-12 11:30 3.97 1870 1340 (2015) 0 (1954) 118 0 0 2 4 15 81 96 572 662
2019-10-12 10:30 4.03 1920 1340 (2015) 0 (1954) 118 0 0 2 4 15 81 96 572 662
2019-10-12 09:30 4.09 1980 1340 (2015) 0 (1954) 118 0 0 2 4 15 81 96 572 662
2019-10-12 08:30 4.15 2040 1340 (2015) 0 (1954) 118 0 0 2 4 15 81 96 572 662
2019-10-12 07:30 4.23 2120 1340 (2015) 0 (1954) 118 0 0 2 4 15 81 96 572 662
2019-10-12 06:30 4.30 2190 1340 (2015) 0 (1954) 118 0 0 2 4 15 81 96 572 662
2019-10-12 05:30 4.38 2270 1340 (2015) 0 (1954) 118 0 0 2 4 15 81 96 572 662
2019-10-12 04:30 4.47 2360 1340 (2015) 0 (1954) 118 0 0 2 4 15 81 96 572 662
2019-10-12 03:30 4.56 2460 1340 (2015) 0 (1954) 118 0 0 2 4 15 81 96 572 662
2019-10-12 02:30 4.66 2570 1340 (2015) 0 (1954) 118 0 0 2 4 15 81 96 572 662
2019-10-12 01:30 4.77 2690 1340 (2015) 0 (1954) 118 0 0 2 4 15 81 96 572 662
2019-10-12 00:30 4.89 2830 1340 (2015) 0 (1954) 118 0 0 2 4 15 81 96 572 662
2019-10-11 23:30 5.01 2960 1320 (2010) 0 (1954) 116 0 0 2 3 15 92 111 380 655
2019-10-11 22:30 5.15 3130 1320 (2010) 0 (1954) 116 0 0 2 3 15 92 111 380 655
2019-10-11 21:30 5.29 3300 1320 (2010) 0 (1954) 116 0 0 2 3 15 92 111 380 655
2019-10-11 20:30 5.45 3490 1320 (2010) 0 (1954) 116 0 0 2 3 15 92 111 380 655
2019-10-11 19:30 5.62 3710 1320 (2010) 0 (1954) 116 0 0 2 3 15 92 111 380 655
2019-10-11 18:30 5.80 3950 1320 (2010) 0 (1954) 116 0 0 2 3 15 92 111 380 655
2019-10-11 17:30 6.05 4280 1320 (2010) 0 (1954) 116 0 0 2 3 15 92 111 380 655
2019-10-11 16:30 6.34 4700 1320 (2010) 0 (1954) 116 0 0 2 3 15 92 111 380 655
2019-10-11 15:30 6.63 5130 1320 (2010) 0 (1954) 116 0 0 2 3 15 92 111 380 655
2019-10-11 14:30 6.79 5370 1320 (2010) 0 (1954) 116 0 0 2 3 15 92 111 380 655
2019-10-11 13:30 6.24 4550 1320 (2010) 0 (1954) 116 0 0 2 3 15 92 111 380 655
2019-10-11 12:30 5.83 3990 1320 (2010) 0 (1954) 116 0 0 2 3 15 92 111 380 655
2019-10-11 11:30 5.80 3950 1320 (2010) 0 (1954) 116 0 0 2 3 15 92 111 380 655
2019-10-11 10:30 4.42 2310 1320 (2010) 0 (1954) 116 0 0 2 3 15 92 111 380 655
2019-10-11 09:30 4.58 2480 1320 (2010) 0 (1954) 116 0 0 2 3 15 92 111 380 655
2019-10-11 08:30 4.97 2920 1320 (2010) 0 (1954) 116 0 0 2 3 15 92 111 380 655
2019-10-11 07:30 3.66 1590 1320 (2010) 0 (1954) 116 0 0 2 3 15 92 111 380 655
2019-10-11 06:30 2.17 378 1320 (2010) 0 (1954) 116 0 0 2 3 15 92 111 380 655
2019-10-11 05:30 2.09 325 1320 (2010) 0 (1954) 116 0 0 2 3 15 92 111 380 655
2019-10-11 04:30 2.01 277 1320 (2010) 0 (1954) 116 0 0 2 3 15 92 111 380 655
2019-10-11 03:30 1.92 229 1320 (2010) 0 (1954) 116 0 0 2 3 15 92 111 380 655
2019-10-11 02:30 1.87 205 1320 (2010) 0 (1954) 116 0 0 2 3 15 92 111 380 655
2019-10-11 01:30 1.84 192 1320 (2010) 0 (1954) 116 0 0 2 3 15 92 111 380 655
2019-10-11 00:30 1.82 183 1320 (2010) 0 (1954) 116 0 0 2 3 15 92 111 380 655
2019-10-10 23:30 1.81 179 2360 (2010) 0 (1954) 117 0 0 2 3 15 96 115 342 705
2019-10-10 22:30 1.80 175 2360 (2010) 0 (1954) 117 0 0 2 3 15 96 115 342 705
2019-10-10 21:30 1.80 175 2360 (2010) 0 (1954) 117 0 0 2 3 15 96 115 342 705
2019-10-10 20:30 1.80 175 2360 (2010) 0 (1954) 117 0 0 2 3 15 96 115 342 705
2019-10-10 19:30 1.79 171 2360 (2010) 0 (1954) 117 0 0 2 3 15 96 115 342 705
2019-10-10 18:30 1.77 163 2360 (2010) 0 (1954) 117 0 0 2 3 15 96 115 342 705
2019-10-10 17:30 1.77 163 2360 (2010) 0 (1954) 117 0 0 2 3 15 96 115 342 705
2019-10-10 16:30 1.77 163 2360 (2010) 0 (1954) 117 0 0 2 3 15 96 115 342 705
2019-10-10 15:30 1.78 167 2360 (2010) 0 (1954) 117 0 0 2 3 15 96 115 342 705
2019-10-10 14:30 1.78 167 2360 (2010) 0 (1954) 117 0 0 2 3 15 96 115 342 705
2019-10-10 13:30 1.78 167 2360 (2010) 0 (1954) 117 0 0 2 3 15 96 115 342 705
2019-10-10 12:30 1.78 167 2360 (2010) 0 (1954) 117 0 0 2 3 15 96 115 342 705
2019-10-10 11:30 1.78 167 2360 (2010) 0 (1954) 117 0 0 2 3 15 96 115 342 705
2019-10-10 10:30 1.77 163 2360 (2010) 0 (1954) 117 0 0 2 3 15 96 115 342 705
2019-10-10 09:30 1.77 163 2360 (2010) 0 (1954) 117 0 0 2 3 15 96 115 342 705
2019-10-10 08:30 1.77 163 2360 (2010) 0 (1954) 117 0 0 2 3 15 96 115 342 705
2019-10-10 07:30 1.77 163 2360 (2010) 0 (1954) 117 0 0 2 3 15 96 115 342 705
2019-10-10 06:30 1.77 163 2360 (2010) 0 (1954) 117 0 0 2 3 15 96 115 342 705
2019-10-10 05:30 1.77 163 2360 (2010) 0 (1954) 117 0 0 2 3 15 96 115 342 705
2019-10-10 04:30 1.77 163 2360 (2010) 0 (1954) 117 0 0 2 3 15 96 115 342 705
2019-10-10 03:30 1.77 163 2360 (2010) 0 (1954) 117 0 0 2 3 15 96 115 342 705
2019-10-10 02:30 1.78 167 2360 (2010) 0 (1954) 117 0 0 2 3 15 96 115 342 705
2019-10-10 01:30 1.78 167 2360 (2010) 0 (1954) 117 0 0 2 3 15 96 115 342 705
2019-10-10 00:30 1.78 167 2360 (2010) 0 (1954) 117 0 0 2 3 15 96 115 342 705
2019-10-09 23:30 1.78 167 2220 (1971) 0 (1954) 140 0 0 2 3 12 109 137 236 981
2019-10-09 22:30 1.79 171 2220 (1971) 0 (1954) 140 0 0 2 3 12 109 137 236 981
2019-10-09 21:30 1.79 171 2220 (1971) 0 (1954) 140 0 0 2 3 12 109 137 236 981
2019-10-09 20:30 1.79 171 2220 (1971) 0 (1954) 140 0 0 2 3 12 109 137 236 981
2019-10-09 19:30 1.80 175 2220 (1971) 0 (1954) 140 0 0 2 3 12 109 137 236 981
2019-10-09 18:30 1.80 175 2220 (1971) 0 (1954) 140 0 0 2 3 12 109 137 236 981
2019-10-09 17:30 1.80 175 2220 (1971) 0 (1954) 140 0 0 2 3 12 109 137 236 981
2019-10-09 16:30 1.80 196 2220 (1971) 0 (1954) 140 0 0 2 3 12 109 137 236 981
2019-10-09 15:30 1.81 201 2220 (1971) 0 (1954) 140 0 0 2 3 12 109 137 236 981
2019-10-09 14:30 1.81 201 2220 (1971) 0 (1954) 140 0 0 2 3 12 109 137 236 981
2019-10-09 13:30 1.81 201 2220 (1971) 0 (1954) 140 0 0 2 3 12 109 137 236 981
2019-10-09 12:30 1.81 201 2220 (1971) 0 (1954) 140 0 0 2 3 12 109 137 236 981
2019-10-09 11:30 1.82 205 2220 (1971) 0 (1954) 140 0 0 2 3 12 109 137 236 981
2019-10-09 10:30 1.82 205 2220 (1971) 0 (1954) 140 0 0 2 3 12 109 137 236 981
2019-10-09 08:30 1.82 205 2220 (1971) 0 (1954) 140 0 0 2 3 12 109 137 236 981
2019-10-09 07:30 1.83 210 2220 (1971) 0 (1954) 140 0 0 2 3 12 109 137 236 981
2019-10-09 06:30 1.83 210 2220 (1971) 0 (1954) 140 0 0 2 3 12 109 137 236 981
2019-10-09 05:30 1.84 215 2220 (1971) 0 (1954) 140 0 0 2 3 12 109 137 236 981
2019-10-09 04:30 1.84 215 2220 (1971) 0 (1954) 140 0 0 2 3 12 109 137 236 981
2019-10-09 03:30 1.85 219 2220 (1971) 0 (1954) 140 0 0 2 3 12 109 137 236 981
2019-10-09 02:30 1.85 219 2220 (1971) 0 (1954) 140 0 0 2 3 12 109 137 236 981
2019-10-09 01:30 1.85 219 2220 (1971) 0 (1954) 140 0 0 2 3 12 109 137 236 981
2019-10-09 00:30 1.86 224 2220 (1971) 0 (1954) 140 0 0 2 3 12 109 137 236 981
2019-10-08 23:30 1.86 224 1880 (1971) 0 (1954) 124 0 0 2 3 11 85 133 234 1010
2019-10-08 22:30 1.87 229 1880 (1971) 0 (1954) 124 0 0 2 3 11 85 133 234 1010
2019-10-08 21:30 1.87 229 1880 (1971) 0 (1954) 124 0 0 2 3 11 85 133 234 1010
2019-10-08 20:30 1.88 234 1880 (1971) 0 (1954) 124 0 0 2 3 11 85 133 234 1010
2019-10-08 19:30 1.89 239 1880 (1971) 0 (1954) 124 0 0 2 3 11 85 133 234 1010
2019-10-08 18:30 1.89 239 1880 (1971) 0 (1954) 124 0 0 2 3 11 85 133 234 1010
2019-10-08 17:30 1.90 244 1880 (1971) 0 (1954) 124 0 0 2 3 11 85 133 234 1010
2019-10-08 16:30 1.90 244 1880 (1971) 0 (1954) 124 0 0 2 3 11 85 133 234 1010
2019-10-08 15:30 1.91 250 1880 (1971) 0 (1954) 124 0 0 2 3 11 85 133 234 1010
2019-10-08 14:30 1.92 255 1880 (1971) 0 (1954) 124 0 0 2 3 11 85 133 234 1010
2019-10-08 13:30 1.92 255 1880 (1971) 0 (1954) 124 0 0 2 3 11 85 133 234 1010
2019-10-08 12:30 1.93 260 1880 (1971) 0 (1954) 124 0 0 2 3 11 85 133 234 1010
2019-10-08 11:30 1.94 266 1880 (1971) 0 (1954) 124 0 0 2 3 11 85 133 234 1010
2019-10-08 10:30 1.95 271 1880 (1971) 0 (1954) 124 0 0 2 3 11 85 133 234 1010
2019-10-08 09:30 1.95 271 1880 (1971) 0 (1954) 124 0 0 2 3 11 85 133 234 1010
2019-10-08 08:30 1.96 277 1880 (1971) 0 (1954) 124 0 0 2 3 11 85 133 234 1010
2019-10-08 07:30 1.97 283 1880 (1971) 0 (1954) 124 0 0 2 3 11 85 133 234 1010
2019-10-08 06:30 1.98 288 1880 (1971) 0 (1954) 124 0 0 2 3 11 85 133 234 1010
2019-10-08 05:30 1.99 294 1880 (1971) 0 (1954) 124 0 0 2 3 11 85 133 234 1010
2019-10-08 04:30 2.01 306 1880 (1971) 0 (1954) 124 0 0 2 3 11 85 133 234 1010
2019-10-08 03:30 2.02 312 1880 (1971) 0 (1954) 124 0 0 2 3 11 85 133 234 1010
2019-10-08 02:30 2.02 312 1880 (1971) 0 (1954) 124 0 0 2 3 11 85 133 234 1010
2019-10-08 01:30 2.01 306 1880 (1971) 0 (1954) 124 0 0 2 3 11 85 133 234 1010
2019-10-08 00:30 1.93 260 1880 (1971) 0 (1954) 124 0 0 2 3 11 85 133 234 1010
2019-10-07 23:30 1.83 210 2080 (1999) 0 (1954) 119 0 0 2 3 12 84 101 218 524
2019-10-07 22:30 1.79 192 2080 (1999) 0 (1954) 119 0 0 2 3 12 84 101 218 524
2019-10-07 21:30 1.79 192 2080 (1999) 0 (1954) 119 0 0 2 3 12 84 101 218 524
2019-10-07 20:30 1.79 192 2080 (1999) 0 (1954) 119 0 0 2 3 12 84 101 218 524
2019-10-07 19:30 1.80 196 2080 (1999) 0 (1954) 119 0 0 2 3 12 84 101 218 524
2019-10-07 18:30 1.80 196 2080 (1999) 0 (1954) 119 0 0 2 3 12 84 101 218 524
2019-10-07 17:30 1.80 196 2080 (1999) 0 (1954) 119 0 0 2 3 12 84 101 218 524
2019-10-07 16:30 1.80 196 2080 (1999) 0 (1954) 119 0 0 2 3 12 84 101 218 524
2019-10-07 15:30 1.80 196 2080 (1999) 0 (1954) 119 0 0 2 3 12 84 101 218 524
2019-10-07 14:30 1.80 196 2080 (1999) 0 (1954) 119 0 0 2 3 12 84 101 218 524
2019-10-07 13:30 1.80 196 2080 (1999) 0 (1954) 119 0 0 2 3 12 84 101 218 524
2019-10-07 12:30 1.80 196 2080 (1999) 0 (1954) 119 0 0 2 3 12 84 101 218 524
2019-10-07 11:30 1.80 196 2080 (1999) 0 (1954) 119 0 0 2 3 12 84 101 218 524
2019-10-07 10:30 1.80 196 2080 (1999) 0 (1954) 119 0 0 2 3 12 84 101 218 524
2019-10-07 09:30 1.80 196 2080 (1999) 0 (1954) 119 0 0 2 3 12 84 101 218 524
2019-10-07 08:30 1.80 196 2080 (1999) 0 (1954) 119 0 0 2 3 12 84 101 218 524
2019-10-07 07:30 1.80 196 2080 (1999) 0 (1954) 119 0 0 2 3 12 84 101 218 524
2019-10-07 06:30 1.80 196 2080 (1999) 0 (1954) 119 0 0 2 3 12 84 101 218 524
2019-10-07 05:30 1.80 196 2080 (1999) 0 (1954) 119 0 0 2 3 12 84 101 218 524
2019-10-07 04:30 1.80 196 2080 (1999) 0 (1954) 119 0 0 2 3 12 84 101 218 524
2019-10-07 03:30 1.81 201 2080 (1999) 0 (1954) 119 0 0 2 3 12 84 101 218 524
2019-10-07 02:30 1.81 201 2080 (1999) 0 (1954) 119 0 0 2 3 12 84 101 218 524
2019-10-07 01:30 1.81 201 2080 (1999) 0 (1954) 119 0 0 2 3 12 84 101 218 524
2019-10-07 00:30 1.81 201 2080 (1999) 0 (1954) 119 0 0 2 3 12 84 101 218 524
2019-10-06 23:30 1.80 196 3740 (1999) 0 (1954) 145 0 0 2 3 11 66 102 249 453
2019-10-06 22:30 1.81 201 3740 (1999) 0 (1954) 145 0 0 2 3 11 66 102 249 453
2019-10-06 21:30 1.81 201 3740 (1999) 0 (1954) 145 0 0 2 3 11 66 102 249 453
2019-10-06 20:30 1.81 201 3740 (1999) 0 (1954) 145 0 0 2 3 11 66 102 249 453
2019-10-06 19:30 1.81 201 3740 (1999) 0 (1954) 145 0 0 2 3 11 66 102 249 453
2019-10-06 18:30 1.81 201 3740 (1999) 0 (1954) 145 0 0 2 3 11 66 102 249 453
2019-10-06 17:30 1.81 201 3740 (1999) 0 (1954) 145 0 0 2 3 11 66 102 249 453
2019-10-06 16:30 1.82 205 3740 (1999) 0 (1954) 145 0 0 2 3 11 66 102 249 453
2019-10-06 15:30 1.82 205 3740 (1999) 0 (1954) 145 0 0 2 3 11 66 102 249 453
2019-10-06 14:30 1.82 205 3740 (1999) 0 (1954) 145 0 0 2 3 11 66 102 249 453
2019-10-06 13:30 1.82 205 3740 (1999) 0 (1954) 145 0 0 2 3 11 66 102 249 453
2019-10-06 12:30 1.82 205 3740 (1999) 0 (1954) 145 0 0 2 3 11 66 102 249 453
2019-10-06 11:30 1.82 205 3740 (1999) 0 (1954) 145 0 0 2 3 11 66 102 249 453
2019-10-06 10:30 1.82 205 3740 (1999) 0 (1954) 145 0 0 2 3 11 66 102 249 453
2019-10-06 09:30 1.83 210 3740 (1999) 0 (1954) 145 0 0 2 3 11 66 102 249 453
2019-10-06 08:30 1.83 210 3740 (1999) 0 (1954) 145 0 0 2 3 11 66 102 249 453
2019-10-06 07:30 1.83 210 3740 (1999) 0 (1954) 145 0 0 2 3 11 66 102 249 453
2019-10-06 06:30 1.83 210 3740 (1999) 0 (1954) 145 0 0 2 3 11 66 102 249 453
2019-10-06 05:30 1.84 215 3740 (1999) 0 (1954) 145 0 0 2 3 11 66 102 249 453
2019-10-06 04:30 1.84 215 3740 (1999) 0 (1954) 145 0 0 2 3 11 66 102 249 453
2019-10-06 03:30 1.84 215 3740 (1999) 0 (1954) 145 0 0 2 3 11 66 102 249 453
2019-10-06 02:30 1.84 215 3740 (1999) 0 (1954) 145 0 0 2 3 11 66 102 249 453
2019-10-06 01:30 1.84 215 3740 (1999) 0 (1954) 145 0 0 2 3 11 66 102 249 453
2019-10-06 00:30 1.85 219 3740 (1999) 0 (1954) 145 0 0 2 3 11 66 102 249 453

A total of 186 rows are displayed for years 1939 through 2017.

Trips for Mulberry River (Arkansas), Mulberry (07252000)

DateStartEndDistanceConditionDischargeHeightFishingDetails

A total of 0 rows are displayed.

Condition Descriptions

Fishing Conditions

Fish Species

Notes

Classic Trip List

The classic River Trips application is still available for use. It is updated with the new system using a data retrofit. It is no longer maintained. The original River Trips application is no longer updated (as of 1 Dec 2016) but can be checked for errors or for the condition of the data before it was converted to the new system.